• Join FlightAware (Why Join?)
  • Login
  • US Flag 
01:43AM EDT


 

Airport Tracker/Info


-or-


 

Live Flight TrackerFlight Track Log ✈ UAL80 ✈ 04-Apr-2013 ✈ KEWR - KMIA

Flight Track Log - Related Links

Times and Time Zones

All times are in EDT time to prevent confusion due to time zone crossing. See the UAL80 flight status page for this flight to view local times or setup timezone preferences in your user account.

Time Position Orientation Groundspeed Altitude Reporting Facility
EDT Latitude Longitude Course Direction KTS MPH feet Rate Location/Type
05:17PM 40.6626 -74.1827 90° East 167 192 1,100  Level FlightAware ADS-B
05:18PM 40.6456 -74.1829 181° South 188 216 1,600 1,680 Climbing FlightAware ADS-B
05:18PM 40.6401 -74.1866 207° Southwest 189 217 1,900 2,160 Climbing FlightAware ADS-B
05:18PM 40.6371 -74.1895 216° Southwest 198 228 2,000 2,700 Climbing FlightAware ADS-B
05:18PM 40.6011 -74.2229 215° Southwest 221 254 4,100 3,000 Climbing FlightAware ADS-B
05:19PM 40.5872 -74.2354 214° Southwest 217 250 5,100 2,820 Climbing FlightAware ADS-B
05:19PM 40.5725 -74.2491 215° Southwest 223 257 5,700 780 Climbing FlightAware ADS-B
05:20PM 40.5359 -74.2703 204° Southwest 254 292 5,800 120 Climbing FlightAware ADS-B
05:20PM 40.5275 -74.2685 171° South 259 298 5,800  Level FlightAware ADS-B
05:20PM 40.5248 -74.2674 163° South 242 278 5,800  Level FlightAware ADS-B
05:20PM 40.5180 -74.2641 160° South 261 300 5,800  Level FlightAware ADS-B
05:20PM 40.4979 -74.2528 157° South 261 300 5,800  Level FlightAware ADS-B
05:20PM 40.4873 -74.2467 156° South 260 299 5,800  Level FlightAware ADS-B
05:20PM 40.4810 -74.2433 158° South 260 299 5,800  Level FlightAware ADS-B
05:21PM 40.4730 -74.2391 158° South 259 298 5,800  Level FlightAware ADS-B
05:21PM 40.4556 -74.2304 159° South 257 296 5,800  Level FlightAware ADS-B
05:21PM 40.4293 -74.2176 160° South 257 296 5,800  Level FlightAware ADS-B
05:22PM 40.4087 -74.2074 159° South 259 298 5,800  Level FlightAware ADS-B
05:22PM 40.3961 -74.2014 160° South 255 293 5,800  Level FlightAware ADS-B
05:22PM 40.3862 -74.1982 166° South 252 290 5,800  Level FlightAware ADS-B
05:22PM 40.3783 -74.1970 173° South 251 289 5,800  Level FlightAware ADS-B
05:22PM 40.3725 -74.1967 178° South 250 288 5,800  Level FlightAware ADS-B
05:22PM 40.3623 -74.1971 182° South 250 288 5,800  Level FlightAware ADS-B
05:22PM 40.3579 -74.1978 187° South 250 288 5,800 540 Level FlightAware ADS-B
05:23PM 40.3386 -74.2008 187° South 250 288 6,000 900 Climbing FlightAware ADS-B
05:23PM 40.3206 -74.2036 187° South 253 291 6,300 1,920 Climbing FlightAware ADS-B
05:23PM 40.3029 -74.2062 186° South 256 295 7,000 2,820 Climbing FlightAware ADS-B
05:23PM 40.2803 -74.2097 187° South 262 302 7,900 3,000 Climbing FlightAware ADS-B
05:24PM 40.2611 -74.2126 187° South 269 310 8,700 3,180 Climbing FlightAware ADS-B
05:24PM 40.2404 -74.2157 187° South 273 314 9,600 2,340 Climbing FlightAware ADS-B
05:24PM 40.2000 -74.2221 187° South 298 343 10,600 1,500 Climbing FlightAware ADS-B
05:25PM 40.1520 -74.2296 187° South 344 396 11,200 1,860 Climbing FlightAware ADS-B
05:25PM 40.1024 -74.2369 186° South 354 407 12,600 2,640 Climbing FlightAware ADS-B
05:26PM 40.0578 -74.2475 190° South 359 413 13,800 2,580 Climbing FlightAware ADS-B
05:26PM 40.0502 -74.2523 206° Southwest 357 411 14,000 2,520 Climbing FlightAware ADS-B
05:26PM 40.0386 -74.2621 213° Southwest 359 413 14,400 2,580 Climbing FlightAware ADS-B
05:27PM 39.9987 -74.3086 222° Southwest 363 418 15,800 2,640 Climbing FlightAware ADS-B
05:27PM 39.9529 -74.3616 222° Southwest 369 425 17,400 2,460 Climbing FlightAware ADS-B
05:28PM 39.9125 -74.4080 221° Southwest 377 434 18,600 2,160 Climbing FlightAware ADS-B
05:28PM 39.8699 -74.4567 221° Southwest 385 443 19,700 2,040 Climbing FlightAware ADS-B
05:29PM 39.8310 -74.5020 222° Southwest 388 447 20,800 2,340 Climbing FlightAware
05:29PM 39.8127 -74.5226 221° Southwest 388 447 21,400 2,340 Climbing FlightAware ADS-B
05:30PM 39.7700 -74.5724 222° Southwest 392 451 22,500 1,800 Climbing FlightAware ADS-B
05:30PM 39.7287 -74.6203 222° Southwest 397 457 23,300 1,560 Climbing FlightAware ADS-B
05:31PM 39.6824 -74.6738 222° Southwest 402 463 24,200 1,800 Climbing FlightAware ADS-B
05:31PM 39.6135 -74.7531 222° Southwest 403 464 25,800 1,920 Climbing FlightAware ADS-B
05:32PM 39.5705 -74.8025 222° Southwest 399 459 26,800 1,740 Climbing FlightAware ADS-B
05:33PM 39.5279 -74.8513 221° Southwest 399 459 27,600 1,140 Climbing FlightAware ADS-B
05:33PM 39.4830 -74.9029 222° Southwest 402 463 28,000 360 Climbing FlightAware ADS-B
05:34PM 39.4412 -74.9507 221° Southwest 402 463 28,000  Level FlightAware ADS-B
05:34PM 39.3979 -75.0001 221° Southwest 402 463 28,000 540 Level FlightAware ADS-B
05:35PM 39.3552 -75.0488 221° Southwest 402 463 28,600 1,500 Climbing FlightAware ADS-B
05:35PM 39.3252 -75.0828 221° Southwest 398 458 29,300 1,920 Climbing FlightAware ADS-B
05:35PM 39.3197 -75.0883 218° Southwest 400 460 29,400 1,800 Climbing FlightAware ADS-B
05:35PM 39.3050 -75.1013 214° Southwest 402 463 29,700 1,980 Climbing FlightAware ADS-B
05:35PM 39.2970 -75.1074 211° Southwest 403 464 29,900 2,220 Climbing FlightAware ADS-B
05:35PM 39.2920 -75.1108 208° Southwest 405 466 30,000 1,620 Climbing FlightAware ADS-B
05:36PM 39.2388 -75.1368 201° Southwest 412 474 30,800 1,680 Climbing FlightAware ADS-B
05:36PM 39.1848 -75.1596 198° South 406 467 31,700 1,740 Climbing FlightAware ADS-B
05:37PM 39.1302 -75.1827 198° South 400 460 32,600 1,860 Climbing FlightAware ADS-B
05:37PM 39.0740 -75.2064 198° South 388 447 33,700 1,080 Climbing FlightAware ADS-B
05:38PM 39.0049 -75.2356 198° South 385 443 34,000 240 Climbing FlightAware ADS-B
05:39PM 38.9539 -75.2571 198° South 385 443 34,000 1,080 Level FlightAware ADS-B
05:40PM 38.8330 -75.3077 198° South 382 440 35,900 1,140 Climbing FlightAware ADS-B
05:40PM 38.7843 -75.3282 198° South 366 421 36,000 60 Climbing FlightAware ADS-B
05:41PM 38.7350 -75.3489 198° South 366 421 36,000  Level FlightAware ADS-B
05:41PM 38.6863 -75.3691 198° South 367 422 36,000  Level FlightAware ADS-B
05:42PM 38.6352 -75.3903 198° South 367 422 36,000  Level FlightAware ADS-B
05:43PM 38.5591 -75.4220 198° South 369 425 36,000  Level FlightAware ADS-B
05:43PM 38.5059 -75.4440 198° South 370 426 36,000  Level FlightAware ADS-B
05:44PM 38.4533 -75.4660 198° South 372 428 36,000  Level FlightAware ADS-B
05:44PM 38.4025 -75.4867 198° South 373 429 36,000  Level FlightAware ADS-B
05:45PM 38.3510 -75.5074 197° South 373 429 36,000  Level FlightAware ADS-B
05:46PM 38.2599 -75.5441 198° South 374 430 36,000  Level FlightAware ADS-B
05:46PM 38.2057 -75.5662 198° South 375 432 36,000  Level FlightAware ADS-B
05:47PM 38.1539 -75.5874 198° South 377 434 36,000  Level FlightAware ADS-B
05:47PM 38.0957 -75.6108 198° South 379 436 36,000  Level FlightAware ADS-B
05:48PM 38.0450 -75.6360 201° Southwest 366 421 36,000  Level FlightAware
05:49PM 37.9670 -75.6790 203° Southwest 372 428 36,000  Level FlightAware
05:49PM 37.8907 -75.7216 204° Southwest 371 427 36,000  Level FlightAware ADS-B
05:50PM 37.8365 -75.7513 203° Southwest 370 426 36,000  Level FlightAware ADS-B
05:51PM 37.7690 -75.7880 203° Southwest 370 426 36,000  Level FlightAware
05:52PM 37.7070 -75.8220 203° Southwest 369 425 36,000  Level FlightAware
05:52PM 37.6380 -75.8590 203° Southwest 367 422 36,000  Level FlightAware
05:53PM 37.5820 -75.8900 204° Southwest 366 421 36,000  Level FlightAware
05:54PM 37.5160 -75.9250 203° Southwest 367 422 36,000  Level FlightAware
05:54PM 37.4640 -75.9530 203° Southwest 367 422 36,000  Level FlightAware
05:55PM 37.3940 -75.9910 203° Southwest 369 425 36,000  Level FlightAware
05:55PM 37.3601 -76.0094 203° Southwest 369 425 36,000  Level FlightAware ADS-B
05:56PM 37.2650 -76.0600 203° Southwest 368 423 36,000  Level FlightAware
05:57PM 37.2207 -76.0842 204° Southwest 367 422 36,000  Level FlightAware ADS-B
05:58PM 37.1350 -76.1300 203° Southwest 366 421 36,000  Level FlightAware
05:59PM 37.0440 -76.1790 203° Southwest 366 421 36,000  Level FlightAware
05:59PM 37.0010 -76.2010 202° Southwest 365 420 36,000  Level FlightAware
06:00PM 36.9330 -76.2370 203° Southwest 363 418 36,000  Level FlightAware
06:01PM 36.8530 -76.2800 203° Southwest 363 418 36,000  Level FlightAware
06:01PM 36.7980 -76.3090 203° Southwest 363 418 36,000  Level FlightAware
06:02PM 36.7460 -76.3370 203° Southwest 363 418 36,000  Level FlightAware
06:03PM 36.6930 -76.3650 203° Southwest 363 418 36,000  Level FlightAware
06:03PM 36.6410 -76.3930 203° Southwest 363 418 36,000  Level FlightAware
06:04PM 36.5750 -76.4270 202° Southwest 363 418 36,000  Level FlightAware
06:05PM 36.5220 -76.4550 203° Southwest 363 418 36,000  Level FlightAware
06:05PM 36.4700 -76.4830 203° Southwest 363 418 36,000  Level FlightAware
06:06PM 36.4040 -76.5170 203° Southwest 363 418 36,000  Level FlightAware
06:07PM 36.3520 -76.5450 203° Southwest 363 418 36,000  Level FlightAware
06:08PM 36.2990 -76.5730 203° Southwest 363 418 36,000  Level FlightAware
06:08PM 36.2460 -76.6010 203° Southwest 363 418 36,000  Level FlightAware
06:09PM 36.1940 -76.6280 203° Southwest 363 418 36,000  Level FlightAware
06:10PM 36.1410 -76.6560 203° Southwest 363 418 36,000  Level FlightAware
06:10PM 36.0760 -76.6900 203° Southwest 363 418 36,000  Level FlightAware
06:11PM 35.8253 -76.7167 203° Southwest 368 423 36,000  Level Washington Center
06:12PM 35.7289 -76.7561 198° South 368 423 36,000 -60 Level Washington Center
06:13PM 35.6347 -76.7931 198° South 368 423 35,900  Descending Washington Center
06:14PM 35.5361 -76.8350 199° South 356 410 36,000  Climbing Washington Center
06:15PM 35.4397 -76.8719 197° South 356 410 36,000  Level Washington Center
06:16PM 35.3456 -76.9086 198° South 362 417 36,000  Level Washington Center
06:17PM 35.2511 -76.9478 199° South 362 417 36,000  Level Washington Center
06:18PM 35.1569 -76.9842 198° South 367 422 36,000 -60 Level Washington Center
06:19PM 35.0606 -77.0231 198° South 367 422 35,900  Descending Washington Center
06:20PM 34.9661 -77.0647 200° South 367 422 36,000  Climbing Washington Center
06:21PM 34.8697 -77.1033 198° South 367 422 36,000  Level Washington Center
06:22PM 34.7753 -77.1394 197° South 367 422 36,000  Level Washington Center
06:23PM 34.6831 -77.1781 199° South 367 422 36,000 -60 Level Washington Center
06:24PM 34.5864 -77.2142 197° South 367 422 35,900  Descending Washington Center
06:25PM 34.4919 -77.2500 197° South 367 422 36,000  Climbing Washington Center
06:26PM 34.3978 -77.2858 197° South 367 422 36,000 -60 Level Washington Center
06:29PM 34.1664 -77.3739 197° South 363 418 35,900 -60 Descending Jacksonville Center
06:30PM 34.0681 -77.4153 199° South 363 418 35,900  Level Jacksonville Center
06:31PM 33.9714 -77.4514 197° South 368 423 35,900  Level Jacksonville Center
06:32PM 33.8708 -77.4903 198° South 373 429 36,000  Climbing Jacksonville Center
06:33PM 33.7622 -77.5319 198° South 379 436 36,000  Level Jacksonville Center
06:34PM 33.6636 -77.5678 197° South 379 436 36,000 -60 Level Jacksonville Center
06:35PM 33.5631 -77.6086 199° South 379 436 35,900 -60 Descending Jacksonville Center
06:36PM 33.4622 -77.6447 197° South 379 436 35,900  Level Jacksonville Center
06:37PM 33.3678 -77.6825 198° South 379 436 35,900  Level Jacksonville Center
06:38PM 33.2714 -77.7206 198° South 379 436 35,900  Level Jacksonville Center
06:39PM 33.1747 -77.7558 197° South 374 430 35,900  Level Jacksonville Center
06:40PM 33.0761 -77.7936 198° South 374 430 35,900  Level Jacksonville Center
06:41PM 32.9794 -77.8314 198° South 374 430 36,000  Climbing Jacksonville Center
06:42PM 32.8808 -77.8667 197° South 379 436 36,000  Level Jacksonville Center
06:43PM 32.7819 -77.9042 198° South 379 436 36,000  Level Jacksonville Center
06:44PM 32.6833 -77.9417 198° South 379 436 36,000  Level Jacksonville Center
06:45PM 32.5847 -77.9817 199° South 379 436 36,000 -60 Level Jacksonville Center
06:46PM 32.4878 -78.0114 195° South 374 430 35,900  Descending Jacksonville Center
06:47PM 32.3911 -78.0461 197° South 374 430 36,000  Climbing Jacksonville Center
06:48PM 32.2967 -78.0856 199° South 374 430 35,900  Descending Jacksonville Center
06:49PM 32.1978 -78.1253 199° South 374 430 36,000  Climbing Jacksonville Center
06:50PM 32.0989 -78.1597 196° South 374 430 36,000  Level Jacksonville Center
06:51PM 32.0003 -78.1967 198° South 374 430 36,000  Level Jacksonville Center
06:52PM 31.8992 -78.2336 197° South 379 436 36,000  Level Jacksonville Center
06:53PM 31.8089 -78.2725 200° South 384 442 36,000  Level Jacksonville Center
06:54PM 31.7097 -78.3042 195° South 377 434 36,000 -60 Level Jacksonville Center
06:55PM 31.6111 -78.3456 200° South 377 434 35,900 -60 Descending Jacksonville Center
06:56PM 31.5100 -78.3822 197° South 377 434 35,900  Level Jacksonville Center
06:57PM 31.4111 -78.4139 195° South 377 434 36,000  Climbing Jacksonville Center
06:58PM 31.3100 -78.4528 198° South 377 434 36,000  Level Jacksonville Center
06:59PM 31.2092 -78.4892 197° South 377 434 36,000  Level Jacksonville Center
07:00PM 31.1083 -78.5303 199° South 382 440 36,000  Level Jacksonville Center
07:01PM 31.0050 -78.5617 195° South 377 434 36,000  Level Jacksonville Center
07:02PM 30.9000 -78.6028 199° South 379 436 36,000  Level Jacksonville Center
07:03PM 30.8008 -78.6386 197° South 370 426 36,000  Level Jacksonville Center
07:04PM 30.7019 -78.6744 197° South 380 437 36,000  Level Jacksonville Center
07:05PM 30.5944 -78.7058 194° South 388 447 36,000  Level Jacksonville Center
07:06PM 30.5225 -78.7117 184° South 380 437 36,000 -120 Level Miami Center
07:07PM 30.4328 -78.7319 191° South 395 455 35,900  Descending Miami Center
07:08PM 30.3283 -78.7517 189° South 401 461 36,000  Climbing Miami Center
07:09PM 30.2175 -78.7689 188° South 396 456 36,000  Level Miami Center
07:10PM 30.1108 -78.7886 189° South 390 449 36,000  Level Miami Center
07:11PM 30.0000 -78.8178 193° South 385 443 36,000  Level Miami Center
07:12PM 29.8936 -78.8325 187° South 385 443 36,000  Level Miami Center
07:13PM 29.7953 -78.8547 191° South 385 443 36,000  Level Miami Center
07:14PM 29.6825 -78.8622 183° South 385 443 36,000  Level Miami Center
07:15PM 29.5800 -78.8794 188° South 388 447 36,000  Level Miami Center
07:16PM 29.4694 -78.8892 184° South 388 447 36,000 -60 Level Miami Center
07:17PM 29.3669 -78.9064 188° South 388 447 35,900  Descending Miami Center
07:18PM 29.2583 -78.9186 186° South 388 447 36,000  Climbing Miami Center
07:19PM 29.1475 -78.9308 186° South 388 447 36,000 -60 Level Miami Center
07:20PM 29.0367 -78.9453 186° South 396 456 35,900  Descending Miami Center
07:21PM 28.9342 -78.9622 188° South 396 456 36,000  Climbing Miami Center
07:22PM 28.8236 -78.9744 188° South 391 450 36,000  Level Miami Center
07:23PM 28.7128 -78.9867 187° South 391 450 36,000  Level Miami Center
07:24PM 28.5430 -79.0100 186° South 36,000  Level FlightAware
07:25PM 28.4120 -79.0300 188° South 36,000  Level FlightAware
07:26PM 28.3320 -79.0420 188° South 387 445 36,000  Level FlightAware
07:27PM 28.2770 -79.0490 186° South 387 445 36,000  Level FlightAware
07:28PM 28.1790 -79.0630 187° South 388 447 36,000  Level FlightAware
07:29PM 28.0550 -79.0800 187° South 388 447 36,000  Level FlightAware
07:30PM 27.9580 -79.0930 187° South 387 445 36,000  Level FlightAware
07:30PM 27.8980 -79.1130 196° South 371 427 36,000  Level FlightAware
07:31PM 27.8410 -79.1830 227° Southwest 364 419 36,000  Level FlightAware
07:32PM 27.7720 -79.2920 234° Southwest 365 420 36,000  Level FlightAware
07:33PM 27.7030 -79.3990 234° Southwest 365 420 36,000  Level FlightAware
07:34PM 27.6956 -79.4156 325° Northwest 366 421 36,000  Level Miami Center
07:35PM 27.6320 -79.5080 234° Southwest 362 417 36,000  Level FlightAware
07:35PM 27.6000 -79.5940 247° West 372 428 36,000  Level FlightAware
07:36PM 27.6110 -79.6620 280° West 387 445 36,000  Level FlightAware
07:37PM 27.6590 -79.7280 309° West 424 488 36,000  Level FlightAware
07:37PM 27.7330 -79.7860 325° Northwest 426 490 36,000  Level FlightAware
07:38PM 27.7960 -79.8350 325° Northwest 419 482 36,000  Level FlightAware
07:39PM 27.8520 -79.8810 324° Northwest 419 482 36,000  Level FlightAware
07:39PM 27.8780 -79.9120 313° West 398 458 36,000  Level FlightAware
07:40PM 27.8900 -79.9660 284° West 375 432 36,000  Level FlightAware
07:40PM 27.8900 -80.0270 270° West 375 432 36,000  Level FlightAware
07:40PM 27.8610 -80.0590 224° Southwest 335 386 36,000  Level FlightAware
07:41PM 27.8330 -80.1260 245° Southwest 329 379 36,000  Level FlightAware
07:42PM 27.7950 -80.2150 244° Southwest 336 387 36,000  Level FlightAware
07:43PM 27.7720 -80.2680 244° Southwest 336 387 36,000 -420 Level FlightAware
07:43PM 27.7410 -80.3430 245° Southwest 337 388 35,500 -540 Descending FlightAware
07:44PM 27.7040 -80.4300 244° Southwest 337 388 35,100 -240 Descending FlightAware
07:45PM 27.6810 -80.4840 244° Southwest 337 388 35,100  Level FlightAware
07:46PM 27.6580 -80.5370 244° Southwest 337 388 35,100  Level FlightAware
07:46PM 27.6340 -80.5910 243° Southwest 337 388 35,100 -120 Level FlightAware
07:47PM 27.8981 -80.5642 244° Southwest 307 353 35,000 -180 Descending Miami Center
07:48PM 28.0058 -80.5114 245° Southwest 322 371 34,900  Descending Miami Center
07:49PM 27.9560 -80.3290 36° Northeast 35,000  Climbing FlightAware
07:50PM 27.9190 -80.3220 171° South 356 410 35,000  Level FlightAware
07:50PM 27.8790 -80.3310 191° South 331 381 35,000  Level FlightAware
07:51PM 27.8390 -80.3540 207° Southwest 328 377 35,000  Level FlightAware
07:51PM 27.8280 -80.3790 244° Southwest 322 371 35,000  Level FlightAware
07:52PM 27.8000 -80.4450 244° Southwest 326 375 35,000  Level FlightAware
07:52PM 27.7790 -80.4970 245° Southwest 326 375 35,000  Level FlightAware
07:53PM 27.6690 -80.4860 175° South 376 433 35,000  Level FlightAware
07:54PM 27.6200 -80.4530 149° Southeast 379 436 35,000  Level FlightAware
07:54PM 27.5570 -80.4070 147° Southeast 379 436 35,000 -420 Level FlightAware
07:55PM 27.6530 -80.2660 52° Northeast 443 510 34,400 -480 Descending FlightAware
07:56PM 27.7110 -80.2250 32° Northeast 443 510 34,400  Level FlightAware
07:56PM 27.7700 -80.1830 32° Northeast 443 510 34,400  Level FlightAware
07:57PM 27.8290 -80.1410 32° Northeast 443 510 34,400 -1,620 Level FlightAware
07:58PM 27.9280 -80.3200 302° West 32,000 -2,880 Descending FlightAware
07:58PM 27.9430 -80.3330 323° Northwest 367 422 32,000  Level FlightAware
07:59PM 27.9840 -80.3740 319° Northwest 367 422 32,000  Level FlightAware
07:59PM 28.0270 -80.4180 318° Northwest 367 422 32,000  Level FlightAware
08:00PM 28.0800 -80.4730 318° Northwest 367 422 32,000 -120 Level FlightAware
08:01PM 27.8817 -80.5472 32° Northeast 256 295 31,900  Descending Miami Center
08:02PM 27.7530 -80.5160 187° South 339 390 32,000  Climbing FlightAware
08:03PM 27.6960 -80.4950 162° South 339 390 32,000  Level FlightAware
08:03PM 27.6450 -80.4770 163° South 339 390 32,000  Level FlightAware
08:04PM 27.6250 -80.3360 99° East 424 488 32,000  Level FlightAware
08:05PM 27.6470 -80.3080 48° Northeast 428 493 32,000  Level FlightAware
08:05PM 27.7100 -80.2640 32° Northeast 415 478 32,000 -120 Level FlightAware
08:06PM 27.7358 -80.2869 28° Northeast 248 285 31,900  Descending Miami Center
08:07PM 27.8392 -80.3253 28° Northeast 267 307 32,000  Climbing Miami Center
08:08PM 27.9730 -80.3290 348° North 32,000  Level FlightAware
08:09PM 28.1460 -80.2270 27° Northeast 425 489 32,000  Level FlightAware
08:10PM 28.2390 -80.1720 28° Northeast 426 490 32,000  Level FlightAware
08:11PM 28.3090 -80.1300 28° Northeast 425 489 32,000  Level FlightAware
08:12PM 28.3680 -80.0940 28° Northeast 425 489 32,000  Level FlightAware
08:12PM 28.4270 -80.0580 28° Northeast 425 489 32,000  Level FlightAware
08:13PM 28.4620 -80.0020 55° Northeast 428 493 32,000  Level FlightAware
08:14PM 28.4220 -79.8440 106° East 387 445 32,000  Level FlightAware
08:15PM 28.3060 -79.8000 162° South 384 442 32,000  Level FlightAware
08:16PM 28.1850 -79.7580 163° South 384 442 32,000  Level FlightAware
08:17PM 28.0930 -79.7370 169° South 378 435 32,000  Level FlightAware
08:18PM 28.0608 -79.7436 180° South 374 430 32,000  Level Miami Center
08:19PM 27.9450 -79.7430 182° South 374 430 32,000  Level FlightAware
08:20PM 27.8480 -79.7420 179° South 372 428 32,000  Level FlightAware
08:20PM 27.7710 -79.7420 180° South 367 422 32,000  Level FlightAware
08:21PM 27.7030 -79.7410 179° South 368 423 32,000  Level FlightAware
08:22PM 27.6440 -79.7410 180° South 372 428 32,000 -660 Level FlightAware
08:23PM 27.5340 -79.7400 180° South 358 412 30,900 -1,200 Descending FlightAware
08:24PM 27.4180 -79.7440 182° South 342 394 29,300 -1,140 Descending FlightAware
08:24PM 27.3600 -79.7510 186° South 337 388 29,000 -1,980 Descending FlightAware
08:25PM 27.2860 -79.7610 187° South 353 406 26,700 -2,520 Descending FlightAware
08:26PM 27.2110 -79.7710 187° South 354 407 25,300 -1,800 Descending FlightAware
08:27PM 27.0990 -79.7850 186° South 343 395 23,300 -1,680 Descending FlightAware
08:28PM 26.9910 -79.7990 187° South 326 375 21,400 -1,680 Descending FlightAware
08:29PM 26.8840 -79.8130 187° South 327 376 19,500 -1,680 Descending FlightAware
08:30PM 26.8310 -79.8200 187° South 325 374 18,500 -1,800 Descending FlightAware
08:31PM 26.7350 -79.8320 186° South 321 369 16,700 -1,380 Descending FlightAware
08:32PM 26.6710 -79.8400 186° South 323 372 16,100 -540 Descending FlightAware
08:32PM 26.6100 -79.8480 187° South 324 373 16,000 -120 Descending FlightAware
08:33PM 26.5500 -79.8560 187° South 323 372 16,000  Level FlightAware
08:34PM 26.4800 -79.8640 186° South 328 377 16,000 -180 Level FlightAware
08:35PM 26.4150 -79.8730 187° South 353 406 15,800 -360 Descending FlightAware
08:35PM 26.3720 -79.8900 200° South 328 377 15,600 -480 Descending FlightAware
08:36PM 26.3270 -79.9360 223° Southwest 318 366 15,300 -480 Descending FlightAware
08:36PM 26.2840 -79.9810 223° Southwest 320 368 15,000 -540 Descending FlightAware
08:37PM 26.2480 -80.0130 219° Southwest 335 386 14,700 -600 Descending FlightAware
08:38PM 26.1870 -80.0320 196° South 333 383 14,300 -660 Descending FlightAware
08:38PM 26.1180 -80.0520 195° South 332 382 13,800 -1,140 Descending FlightAware
08:39PM 26.0580 -80.0690 194° South 333 383 12,700 -1,860 Descending FlightAware
08:40PM 25.9910 -80.0870 194° South 320 368 11,200 -1,680 Descending FlightAware
08:40PM 25.9590 -80.1060 208° Southwest 287 330 10,800 -1,140 Descending FlightAware
08:41PM 25.9270 -80.1590 236° Southwest 261 300 9,900 -1,380 Descending FlightAware
08:41PM 25.9140 -80.1880 244° Southwest 254 292 9,200 -1,800 Descending FlightAware
08:42PM 25.9010 -80.2260 249° West 253 291 8,300 -1,680 Descending FlightAware
08:42PM 25.8920 -80.2550 251° West 249 287 7,700 -1,560 Descending FlightAware
08:43PM 25.8890 -80.2930 265° West 252 290 6,900 -1,500 Descending FlightAware
08:43PM 25.9030 -80.3300 293° West 255 293 6,200 -1,140 Descending FlightAware
08:44PM 25.9130 -80.3590 291° West 244 281 5,900 -240 Descending FlightAware
08:44PM 25.9270 -80.3920 295° West 221 254 6,000  Climbing FlightAware
08:45PM 25.9360 -80.4180 291° West 216 249 5,900 -780 Descending FlightAware
08:45PM 25.9400 -80.4340 286° West 215 247 5,500 -1,380 Descending FlightAware
08:45PM 25.9250 -80.4590 236° Southwest 206 237 4,900 -1,200 Descending FlightAware
08:45PM 25.9160 -80.4610 191° South 198 228 4,700 -1,200 Descending FlightAware
08:46PM 25.8890 -80.4450 152° Southeast 214 246 4,100 -1,020 Descending FlightAware
08:46PM 25.8660 -80.4270 145° Southeast 194 223 3,700 -840 Descending FlightAware
08:47PM 25.8570 -80.4160 132° Southeast 188 216 3,500 -1,200 Descending FlightAware
08:47PM 25.8470 -80.3950 118° Southeast 173 199 2,900 -1,380 Descending FlightAware
08:47PM 25.8410 -80.3840 121° Southeast 163 188 2,600 -1,500 Descending FlightAware
08:48PM 25.8300 -80.3630 120° Southeast 159 183 1,800 -1,740 Descending FlightAware
08:48PM 25.8190 -80.3420 120° Southeast 160 184 900 -1,440 Descending FlightAware
08:49PM 25.8090 -80.3210 118° Southeast 146 168 400 -900 Descending FlightAware
08:49PM 25.8000 -80.3050 122° Southeast 141 162 100 -720 Descending FlightAware